createdAt,value
2018-09-11T00:01:01.467Z,70.02
2018-09-11T00:03:30.062Z,70.67
2018-09-11T00:05:59.328Z,70.23
2018-09-11T00:08:28.345Z,71.02
2018-09-11T00:10:56.686Z,70.48
2018-09-11T00:13:25.129Z,71.10
2018-09-11T00:15:53.985Z,71.37
2018-09-11T00:18:22.496Z,70.75
2018-09-11T00:20:50.914Z,71.45
2018-09-11T00:23:19.398Z,70.99
2018-09-11T00:25:47.842Z,71.08
2018-09-11T00:28:16.164Z,71.85
2018-09-11T00:30:44.595Z,71.72
2018-09-11T00:33:13.077Z,71.99
2018-09-11T00:35:41.530Z,71.35
2018-09-11T00:38:09.986Z,72.13
2018-09-11T00:40:38.510Z,71.75
2018-09-11T00:43:07.414Z,71.66
2018-09-11T00:45:36.014Z,71.77
2018-09-11T00:48:04.613Z,71.80
2018-09-11T00:50:33.485Z,72.55
2018-09-11T00:53:01.800Z,72.04
2018-09-11T00:55:30.797Z,72.27
2018-09-11T00:57:59.509Z,72.70
2018-09-11T01:00:27.827Z,72.62
2018-09-11T01:02:56.218Z,72.80
2018-09-11T01:05:24.626Z,72.20
2018-09-11T01:07:53.007Z,72.29
2018-09-11T01:10:21.856Z,72.76
2018-09-11T01:12:50.497Z,72.98
2018-09-11T01:15:19.547Z,73.12
2018-09-11T01:17:47.995Z,72.44
2018-09-11T01:20:16.491Z,73.22
2018-09-11T01:22:44.904Z,73.37
2018-09-11T01:25:13.434Z,73.15
2018-09-11T01:27:41.772Z,73.25
2018-09-11T01:30:10.082Z,73.14
2018-09-11T01:32:38.417Z,73.17
2018-09-11T01:35:06.845Z,72.88
2018-09-11T01:37:35.229Z,72.80
2018-09-11T01:40:03.713Z,73.46
2018-09-11T01:42:32.052Z,72.80
2018-09-11T01:45:00.469Z,72.98
2018-09-11T01:47:28.912Z,73.45
2018-09-11T01:49:58.220Z,73.05
2018-09-11T01:52:28.192Z,73.60
2018-09-11T01:54:56.652Z,73.67
2018-09-11T01:57:25.047Z,73.31
2018-09-11T01:59:53.497Z,73.26
2018-09-11T02:02:22.358Z,73.71
2018-09-11T02:04:51.237Z,73.51
2018-09-11T02:07:20.949Z,73.31
2018-09-11T02:12:16.412Z,73.63
2018-09-11T02:14:44.932Z,73.64
2018-09-11T02:17:13.329Z,73.50
2018-09-11T02:19:41.749Z,73.32
2018-09-11T02:22:10.233Z,73.19
2018-09-11T02:24:38.565Z,73.42
2018-09-11T02:27:07.887Z,73.92
2018-09-11T02:29:36.264Z,73.16
2018-09-11T02:32:04.822Z,73.86
2018-09-11T02:34:33.327Z,73.25
2018-09-11T02:37:01.614Z,73.74
2018-09-11T02:39:30.012Z,73.14
2018-09-11T02:41:58.372Z,73.56
2018-09-11T02:44:26.777Z,73.64
2018-09-11T02:46:55.215Z,73.51
2018-09-11T02:49:23.629Z,73.46
2018-09-11T02:51:52.023Z,74.12
2018-09-11T02:54:20.335Z,74.27
2018-09-11T02:56:49.347Z,73.61
2018-09-11T02:59:17.739Z,73.77
2018-09-11T03:01:46.178Z,74.30
2018-09-11T03:04:14.551Z,73.69
2018-09-11T03:06:43.035Z,74.55
2018-09-11T03:09:11.471Z,73.89
2018-09-11T03:11:39.803Z,74.28
2018-09-11T03:14:08.220Z,74.74
2018-09-11T03:16:36.561Z,74.34
2018-09-11T03:19:05.154Z,74.34
2018-09-11T03:21:33.493Z,74.79
2018-09-11T03:24:01.884Z,74.70
2018-09-11T03:26:30.253Z,74.48
2018-09-11T03:28:58.632Z,74.56
2018-09-11T03:31:27.126Z,74.51
2018-09-11T03:33:55.496Z,75.08
2018-09-11T03:36:24.103Z,74.31
2018-09-11T03:38:52.477Z,75.34
2018-09-11T03:41:20.849Z,74.55
2018-09-11T03:43:49.928Z,74.79
2018-09-11T03:46:18.807Z,75.03
2018-09-11T03:48:47.468Z,75.02
2018-09-11T03:51:17.820Z,74.80
2018-09-11T03:53:46.278Z,74.87
2018-09-11T03:56:14.622Z,74.71
2018-09-11T03:58:43.014Z,74.94
2018-09-11T04:01:11.595Z,75.37
2018-09-11T04:03:40.053Z,74.86
2018-09-11T04:06:08.497Z,75.11
2018-09-11T04:08:36.980Z,74.95
2018-09-11T04:11:05.354Z,74.90
2018-09-11T04:13:33.807Z,75.53
2018-09-11T04:16:02.238Z,75.69
2018-09-11T04:18:31.125Z,75.41
2018-09-11T04:20:59.496Z,75.28
2018-09-11T04:23:28.588Z,75.06
2018-09-11T04:25:57.055Z,75.64
2018-09-11T04:28:25.471Z,75.73
2018-09-11T04:30:53.952Z,76.03
2018-09-11T04:33:22.330Z,76.27
2018-09-11T04:35:50.704Z,75.75
2018-09-11T04:38:19.013Z,76.42
2018-09-11T04:40:47.348Z,76.45
2018-09-11T04:43:15.731Z,76.68
2018-09-11T04:45:44.118Z,76.75
2018-09-11T04:48:12.844Z,76.07
2018-09-11T04:50:41.162Z,76.14
2018-09-11T04:53:10.110Z,76.58
2018-09-11T04:55:39.549Z,76.18
2018-09-11T04:58:08.545Z,76.96
2018-09-11T05:00:36.978Z,77.10
2018-09-11T05:03:06.353Z,77.14
2018-09-11T05:05:34.757Z,77.04
2018-09-11T05:08:03.725Z,77.26
2018-09-11T05:10:32.214Z,77.34
2018-09-11T05:13:01.635Z,77.10
2018-09-11T05:15:30.008Z,77.51
2018-09-11T05:17:59.126Z,77.01
2018-09-11T05:20:27.501Z,77.17
2018-09-11T05:22:55.895Z,77.68
2018-09-11T05:25:24.431Z,76.95
2018-09-11T05:27:52.923Z,77.84
2018-09-11T05:30:21.263Z,77.92
2018-09-11T05:32:49.776Z,76.99
2018-09-11T05:35:18.350Z,77.72
2018-09-11T05:37:46.708Z,77.90
2018-09-11T05:40:15.891Z,77.91
2018-09-11T05:42:44.264Z,77.70
2018-09-11T05:45:12.708Z,77.30
2018-09-11T05:47:41.137Z,77.73
2018-09-11T05:50:10.907Z,77.91
2018-09-11T05:52:40.071Z,77.51
2018-09-11T05:55:09.149Z,77.56
2018-09-11T05:57:37.570Z,77.55
2018-09-11T06:00:06.916Z,77.39
2018-09-11T06:02:36.453Z,78.00
2018-09-11T06:05:05.397Z,78.20
2018-09-11T06:07:34.260Z,77.62
2018-09-11T06:10:02.850Z,77.95
2018-09-11T06:12:31.347Z,77.50
2018-09-11T06:14:59.823Z,77.28
2018-09-11T06:17:28.446Z,77.53
2018-09-11T06:19:57.444Z,77.43
2018-09-11T06:22:25.828Z,77.39
2018-09-11T06:24:54.210Z,77.60
2018-09-11T06:27:22.938Z,77.86
2018-09-11T06:29:51.229Z,77.03
2018-09-11T06:32:20.103Z,77.79
2018-09-11T06:34:48.884Z,77.81
2018-09-11T06:37:17.236Z,76.96
2018-09-11T06:39:45.896Z,77.64
2018-09-11T06:42:14.328Z,77.43
2018-09-11T06:44:42.751Z,77.08
2018-09-11T06:47:11.958Z,77.26
2018-09-11T06:49:40.359Z,77.02
2018-09-11T06:52:08.742Z,76.64
2018-09-11T06:54:37.242Z,77.01
2018-09-11T06:57:06.107Z,76.48
2018-09-11T06:59:35.036Z,76.62
2018-09-11T07:02:07.699Z,76.95
2018-09-11T07:04:36.198Z,76.44
2018-09-11T07:07:05.024Z,76.77
2018-09-11T07:09:34.014Z,76.22
2018-09-11T07:12:03.725Z,76.36
2018-09-11T07:14:32.115Z,75.42
2018-09-11T07:17:00.496Z,75.93
2018-09-11T07:19:29.528Z,75.80
2018-09-11T07:21:58.027Z,74.88
2018-09-11T07:24:26.725Z,75.03
2018-09-11T07:26:55.405Z,75.10
2018-09-11T07:29:24.319Z,75.44
2018-09-11T07:31:52.710Z,75.26
2018-09-11T07:34:21.068Z,75.10
2018-09-11T07:36:49.698Z,74.99
2018-09-11T07:39:18.119Z,74.24
2018-09-11T07:41:46.612Z,74.76
2018-09-11T07:44:15.065Z,74.13
2018-09-11T07:46:43.418Z,73.74
2018-09-11T07:49:11.837Z,74.11
2018-09-11T07:51:40.253Z,74.18
2018-09-11T07:54:09.404Z,73.55
2018-09-11T07:59:09.605Z,73.59
2018-09-11T08:01:38.096Z,72.94
2018-09-11T08:04:06.798Z,73.01
2018-09-11T08:06:35.296Z,72.27
2018-09-11T08:09:04.864Z,72.49
2018-09-11T08:11:33.847Z,71.79
2018-09-11T08:14:03.197Z,71.63
2018-09-11T08:16:32.314Z,71.60
2018-09-11T08:19:00.625Z,71.77
2018-09-11T08:21:29.070Z,71.63
2018-09-11T08:23:57.782Z,70.54
2018-09-11T08:26:26.284Z,70.39
2018-09-11T08:28:55.119Z,69.93
2018-09-11T08:31:23.544Z,69.89
2018-09-11T08:33:52.963Z,69.46
2018-09-11T08:36:21.453Z,69.37
2018-09-11T08:38:49.893Z,69.79
2018-09-11T08:41:18.481Z,68.93
2018-09-11T08:43:46.873Z,69.09
2018-09-11T08:46:15.257Z,68.08
2018-09-11T08:48:43.725Z,68.47
2018-09-11T08:51:12.343Z,68.37
2018-09-11T08:53:42.044Z,67.19
2018-09-11T08:56:10.754Z,67.51
2018-09-11T08:58:39.216Z,66.56
2018-09-11T09:01:08.206Z,66.99
2018-09-11T09:03:36.645Z,66.56
2018-09-11T09:06:05.522Z,65.73
2018-09-11T09:08:33.872Z,65.25
2018-09-11T09:11:02.483Z,64.93
2018-09-11T09:13:30.848Z,64.40
2018-09-11T09:15:59.188Z,64.24
2018-09-11T09:18:28.555Z,64.62
2018-09-11T09:20:57.037Z,64.41
2018-09-11T09:23:25.586Z,63.68
2018-09-11T09:25:53.996Z,64.07
2018-09-11T09:28:22.633Z,63.19
2018-09-11T09:30:51.073Z,63.52
2018-09-11T09:33:19.534Z,62.22
2018-09-11T09:35:48.650Z,62.55
2018-09-11T09:38:19.110Z,62.08
2018-09-11T09:40:48.476Z,61.23
2018-09-11T09:43:16.901Z,61.12
2018-09-11T09:45:45.239Z,61.23
2018-09-11T09:48:13.659Z,60.00
2018-09-11T09:50:42.559Z,60.38
2018-09-11T09:53:10.949Z,59.38
2018-09-11T09:55:39.244Z,59.51
2018-09-11T09:58:08.058Z,59.81
2018-09-11T10:00:41.596Z,59.08
2018-09-11T10:03:10.029Z,58.71
2018-09-11T10:05:38.762Z,57.99
2018-09-11T10:08:07.748Z,57.92
2018-09-11T10:10:36.299Z,57.98
2018-09-11T10:13:05.773Z,57.53
2018-09-11T10:15:34.257Z,56.43
2018-09-11T10:18:04.381Z,56.08
2018-09-11T10:20:32.912Z,55.56
2018-09-11T10:23:01.349Z,55.84
2018-09-11T10:25:30.700Z,55.55
2018-09-11T10:27:59.738Z,54.95
2018-09-11T10:30:28.164Z,55.12
2018-09-11T10:32:56.594Z,54.98
2018-09-11T10:35:25.945Z,54.45
2018-09-11T10:37:54.417Z,54.37
2018-09-11T10:40:22.876Z,53.44
2018-09-11T10:42:51.528Z,53.77
2018-09-11T10:45:19.880Z,52.44
2018-09-11T10:47:48.283Z,52.46
2018-09-11T10:50:17.072Z,52.73
2018-09-11T10:52:45.560Z,52.35
2018-09-11T10:55:14.606Z,51.45
2018-09-11T10:57:43.232Z,51.49
2018-09-11T11:00:11.673Z,50.99
2018-09-11T11:02:40.139Z,51.57
2018-09-11T11:05:08.641Z,51.26
2018-09-11T11:07:37.196Z,50.93
2018-09-11T11:10:09.067Z,50.77
2018-09-11T11:12:37.405Z,50.27
2018-09-11T11:17:35.128Z,50.29
2018-09-11T11:20:03.612Z,49.78
2018-09-11T11:22:32.163Z,48.88
2018-09-11T11:25:00.711Z,48.35
2018-09-11T11:27:29.101Z,48.76
2018-09-11T11:32:24.909Z,48.66
2018-09-11T11:34:53.262Z,47.27
2018-09-11T11:37:21.762Z,47.44
2018-09-11T11:39:50.650Z,47.57
2018-09-11T11:42:19.010Z,47.14
2018-09-11T11:44:47.342Z,46.94
2018-09-11T11:47:16.743Z,46.70
2018-09-11T11:49:45.108Z,46.65
2018-09-11T11:52:13.556Z,45.95
2018-09-11T11:54:42.115Z,46.25
2018-09-11T11:57:10.403Z,46.41
2018-09-11T11:59:38.798Z,45.90
2018-09-11T12:02:08.382Z,46.24
2018-09-11T12:04:36.786Z,46.30
2018-09-11T12:07:07.327Z,46.38
2018-09-11T12:09:35.694Z,46.27
2018-09-11T12:12:04.569Z,46.37
2018-09-11T12:14:33.029Z,46.08
2018-09-11T12:17:01.448Z,45.86
2018-09-11T12:19:29.952Z,46.27
2018-09-11T12:21:58.377Z,45.85
2018-09-11T12:24:26.723Z,45.84
2018-09-11T12:26:55.060Z,45.79
2018-09-11T12:29:23.374Z,45.80
2018-09-11T12:31:51.737Z,45.82
2018-09-11T12:34:20.131Z,45.44
2018-09-11T12:36:50.497Z,45.77
2018-09-11T12:39:18.937Z,45.85
2018-09-11T12:41:48.636Z,45.80
2018-09-11T12:44:16.989Z,46.00
2018-09-11T12:46:46.155Z,45.36
2018-09-11T12:49:14.459Z,45.20
2018-09-11T12:51:43.668Z,44.86
2018-09-11T12:54:12.034Z,44.78
2018-09-11T12:56:40.793Z,45.77
2018-09-11T12:59:09.283Z,45.63
2018-09-11T13:01:37.984Z,46.10
2018-09-11T13:04:08.387Z,45.51
2018-09-11T13:06:36.804Z,46.13
2018-09-11T13:09:07.559Z,45.73
2018-09-11T13:11:36.001Z,45.75
2018-09-11T13:14:05.217Z,45.43
2018-09-11T13:19:04.447Z,46.27
2018-09-11T13:21:32.926Z,45.82
2018-09-11T13:24:01.830Z,45.89
2018-09-11T13:26:30.235Z,46.27
2018-09-11T13:28:58.642Z,45.88
2018-09-11T13:31:27.125Z,45.76
2018-09-11T13:33:55.759Z,45.39
2018-09-11T13:36:24.214Z,45.41
2018-09-11T13:38:52.750Z,45.38
2018-09-11T13:41:21.159Z,45.13
2018-09-11T13:43:49.914Z,45.72
2018-09-11T13:46:18.595Z,45.74
2018-09-11T13:48:47.201Z,45.32
2018-09-11T13:51:15.635Z,45.54
2018-09-11T13:53:44.025Z,46.04
2018-09-11T13:56:12.421Z,45.90
2018-09-11T13:58:41.039Z,45.81
2018-09-11T14:01:09.561Z,45.73
2018-09-11T14:03:38.695Z,45.40
2018-09-11T14:06:07.586Z,46.02
2018-09-11T14:08:35.961Z,45.11
2018-09-11T14:11:04.632Z,45.55
2018-09-11T14:13:34.071Z,45.67
2018-09-11T14:16:02.405Z,45.67
2018-09-11T14:18:30.860Z,45.24
2018-09-11T14:20:59.821Z,45.38
2018-09-11T14:23:28.604Z,45.59
2018-09-11T14:25:56.917Z,45.84
2018-09-11T14:28:26.084Z,45.45
2018-09-11T14:30:54.538Z,45.24
2018-09-11T14:33:22.915Z,44.77
2018-09-11T14:35:52.105Z,44.40
2018-09-11T14:38:20.484Z,44.60
2018-09-11T14:40:49.132Z,44.44
2018-09-11T14:43:17.656Z,44.27
2018-09-11T14:45:46.180Z,44.07
2018-09-11T14:48:14.789Z,44.25
2018-09-11T14:50:43.281Z,44.09
2018-09-11T14:53:11.683Z,43.90
2018-09-11T14:55:40.205Z,44.23
2018-09-11T14:58:08.733Z,43.74
2018-09-11T15:00:38.118Z,43.75
2018-09-11T15:03:07.013Z,43.45
2018-09-11T15:05:35.617Z,43.79
2018-09-11T15:08:04.381Z,43.46
2018-09-11T15:10:32.996Z,43.21
2018-09-11T15:13:01.600Z,43.30
2018-09-11T15:15:30.093Z,43.18
2018-09-11T15:17:59.437Z,42.89
2018-09-11T15:20:27.841Z,43.06
2018-09-11T15:22:56.283Z,43.35
2018-09-11T15:25:25.800Z,43.20
2018-09-11T15:27:54.414Z,43.49
2018-09-11T15:30:22.840Z,43.86
2018-09-11T15:32:51.237Z,44.16
2018-09-11T15:35:19.721Z,44.35
2018-09-11T15:37:48.873Z,44.50
2018-09-11T15:40:17.840Z,44.47
2018-09-11T15:42:46.436Z,44.68
2018-09-11T15:45:14.825Z,44.54
2018-09-11T15:47:43.406Z,44.78
2018-09-11T15:50:11.830Z,44.83
2018-09-11T15:52:40.372Z,45.39
2018-09-11T15:55:08.785Z,45.58
2018-09-11T15:57:37.268Z,45.72
2018-09-11T16:00:06.319Z,46.16
2018-09-11T16:02:34.748Z,45.83
2018-09-11T16:05:03.349Z,46.56
2018-09-11T16:07:31.831Z,46.09
2018-09-11T16:10:00.361Z,46.25
2018-09-11T16:12:28.853Z,45.97
2018-09-11T16:14:57.317Z,46.36
2018-09-11T16:17:26.910Z,46.17
2018-09-11T16:19:55.439Z,46.96
2018-09-11T16:22:23.895Z,47.00
2018-09-11T16:24:52.261Z,47.24
2018-09-11T16:27:21.575Z,47.34
2018-09-11T16:29:50.133Z,47.97
2018-09-11T16:32:19.258Z,48.25
2018-09-11T16:34:47.653Z,47.51
2018-09-11T16:37:16.108Z,47.77
2018-09-11T16:39:44.557Z,47.90
2018-09-11T16:42:12.987Z,48.13
2018-09-11T16:44:41.415Z,48.44
2018-09-11T16:47:09.889Z,48.61
2018-09-11T16:49:38.390Z,49.18
2018-09-11T16:52:06.815Z,48.70
2018-09-11T16:54:35.226Z,49.74
2018-09-11T16:57:04.612Z,49.14
2018-09-11T16:59:32.911Z,50.04
2018-09-11T17:02:01.835Z,50.15
2018-09-11T17:04:30.280Z,50.40
2018-09-11T17:06:58.656Z,50.57
2018-09-11T17:09:27.118Z,50.02
2018-09-11T17:11:57.330Z,51.00
2018-09-11T17:14:25.908Z,51.19
2018-09-11T17:16:54.351Z,50.63
2018-09-11T17:19:23.564Z,51.49
2018-09-11T17:21:51.971Z,51.84
2018-09-11T17:24:20.443Z,51.27
2018-09-11T17:26:48.811Z,52.12
2018-09-11T17:29:17.161Z,51.92
2018-09-11T17:31:45.679Z,51.87
2018-09-11T17:34:14.078Z,52.82
2018-09-11T17:36:42.478Z,52.29
2018-09-11T17:39:12.114Z,53.69
2018-09-11T17:41:41.274Z,53.67
2018-09-11T17:46:37.132Z,54.94
2018-09-11T17:49:05.823Z,55.93
2018-09-11T17:51:34.247Z,55.71
2018-09-11T17:54:03.465Z,56.38
2018-09-11T17:56:32.004Z,57.61
2018-09-11T17:59:03.435Z,57.91
2018-09-11T18:01:32.566Z,57.70
2018-09-11T18:04:01.965Z,58.62
2018-09-11T18:06:30.452Z,58.48
2018-09-11T18:08:59.080Z,58.96
2018-09-11T18:11:27.620Z,59.47
2018-09-11T18:13:56.009Z,59.08
2018-09-11T18:16:24.361Z,59.30
2018-09-11T18:18:53.305Z,59.67
2018-09-11T18:21:21.747Z,60.55
2018-09-11T18:23:50.250Z,60.96
2018-09-11T18:26:18.737Z,60.64
2018-09-11T18:28:47.113Z,60.74
2018-09-11T18:31:15.580Z,60.93
2018-09-11T18:33:44.086Z,61.19
2018-09-11T18:36:12.659Z,62.24
2018-09-11T18:38:41.006Z,61.77
2018-09-11T18:41:09.351Z,62.57
2018-09-11T18:43:37.680Z,62.15
2018-09-11T18:46:06.180Z,62.34
2018-09-11T18:48:35.110Z,62.58
2018-09-11T18:51:03.662Z,63.60
2018-09-11T18:53:32.103Z,62.99
2018-09-11T18:56:00.687Z,63.91
2018-09-11T18:58:30.469Z,64.15
2018-09-11T19:00:59.045Z,63.98
2018-09-11T19:03:27.394Z,63.90
2018-09-11T19:05:55.846Z,64.77
2018-09-11T19:08:24.840Z,64.15
2018-09-11T19:10:53.762Z,64.56
2018-09-11T19:13:22.070Z,65.04
2018-09-11T19:18:17.782Z,64.87
2018-09-11T19:20:46.423Z,64.31
2018-09-11T19:23:14.852Z,64.96
2018-09-11T19:25:43.328Z,65.45
2018-09-11T19:28:11.718Z,65.06
2018-09-11T19:33:07.370Z,65.58
2018-09-11T19:35:36.797Z,65.51
2018-09-11T19:38:07.310Z,65.44
2018-09-11T19:40:35.901Z,65.49
2018-09-11T19:43:04.311Z,66.37
2018-09-11T19:45:33.937Z,65.82
2018-09-11T19:48:02.422Z,65.90
2018-09-11T19:50:32.143Z,65.87
2018-09-11T19:53:00.679Z,66.54
2018-09-11T19:55:29.188Z,66.40
2018-09-11T19:58:02.213Z,65.94
2018-09-11T20:00:32.602Z,65.94
2018-09-11T20:03:01.213Z,66.69
2018-09-11T20:05:29.569Z,65.95
2018-09-11T20:07:58.122Z,66.76
2018-09-11T20:10:26.557Z,66.67
2018-09-11T20:12:55.278Z,66.02
2018-09-11T20:15:26.905Z,66.23
2018-09-11T20:17:55.518Z,66.91
2018-09-11T20:20:23.924Z,65.91
2018-09-11T20:22:52.520Z,66.99
2018-09-11T20:25:21.247Z,66.75
2018-09-11T20:27:50.253Z,67.03
2018-09-11T20:30:19.590Z,67.02
2018-09-11T20:32:48.026Z,67.00
2018-09-11T20:35:16.494Z,66.54
2018-09-11T20:37:45.406Z,67.09
2018-09-11T20:40:13.845Z,66.80
2018-09-11T20:42:42.399Z,67.30
2018-09-11T20:45:10.851Z,67.33
2018-09-11T20:47:39.219Z,66.61
2018-09-11T20:50:08.170Z,67.49
2018-09-11T20:52:36.685Z,67.49
2018-09-11T20:55:05.464Z,67.17
2018-09-11T20:57:34.064Z,67.22
2018-09-11T21:00:02.467Z,67.69
2018-09-11T21:02:30.957Z,66.99
2018-09-11T21:04:59.338Z,67.49
2018-09-11T21:07:27.920Z,67.47
2018-09-11T21:09:56.321Z,67.56
2018-09-11T21:12:25.303Z,68.11
2018-09-11T21:14:54.512Z,68.05
2018-09-11T21:17:23.005Z,67.87
2018-09-11T21:19:51.393Z,67.60
2018-09-11T21:22:19.811Z,68.32
2018-09-11T21:24:48.240Z,67.77
2018-09-11T21:27:16.616Z,68.68
2018-09-11T21:29:44.972Z,68.74
2018-09-11T21:32:14.340Z,68.40
2018-09-11T21:34:42.877Z,68.67
2018-09-11T21:37:12.289Z,68.47
2018-09-11T21:39:40.655Z,68.71
2018-09-11T21:42:09.231Z,69.15
2018-09-11T21:44:39.313Z,68.67
2018-09-11T21:47:07.749Z,69.37
2018-09-11T21:49:36.298Z,69.16
2018-09-11T21:52:04.746Z,68.82
2018-09-11T21:54:33.417Z,68.78
2018-09-11T21:57:01.818Z,68.85
2018-09-11T21:59:30.286Z,69.63
2018-09-11T22:02:02.496Z,69.81
2018-09-11T22:04:31.269Z,69.62
2018-09-11T22:06:59.752Z,69.87
2018-09-11T22:09:28.197Z,69.21
2018-09-11T22:11:56.788Z,69.23
2018-09-11T22:14:25.059Z,69.28
2018-09-11T22:16:53.651Z,69.90
2018-09-11T22:19:22.234Z,70.02
2018-09-11T22:21:52.144Z,70.26
2018-09-11T22:24:20.766Z,69.77
2018-09-11T22:26:49.143Z,69.94
2018-09-11T22:29:17.553Z,69.71
2018-09-11T22:31:46.483Z,70.56
2018-09-11T22:34:14.824Z,70.02
2018-09-11T22:36:43.354Z,70.16
2018-09-11T22:39:12.145Z,70.37
2018-09-11T22:41:40.590Z,69.82
2018-09-11T22:44:09.991Z,70.34
2018-09-11T22:46:38.619Z,70.31
2018-09-11T22:49:07.095Z,70.50
2018-09-11T22:51:35.505Z,71.53
2018-09-11T22:54:04.800Z,70.94
2018-09-11T22:56:33.187Z,71.03
2018-09-11T22:59:02.054Z,71.53
2018-09-11T23:01:30.504Z,70.81
2018-09-11T23:03:59.067Z,70.80
2018-09-11T23:06:27.402Z,71.73
2018-09-11T23:08:56.381Z,71.02
2018-09-11T23:11:25.830Z,71.78
2018-09-11T23:13:54.249Z,71.84
2018-09-11T23:16:23.245Z,71.41
2018-09-11T23:18:51.828Z,71.45
2018-09-11T23:21:20.615Z,71.97
2018-09-11T23:23:49.006Z,72.07
2018-09-11T23:26:18.194Z,72.00
2018-09-11T23:28:47.250Z,71.63
2018-09-11T23:31:15.665Z,71.79
2018-09-11T23:33:44.077Z,71.73
2018-09-11T23:36:12.507Z,72.57
2018-09-11T23:38:40.813Z,72.22
2018-09-11T23:41:09.371Z,72.70
2018-09-11T23:43:37.874Z,72.18
2018-09-11T23:46:06.378Z,72.13
2018-09-11T23:48:34.741Z,72.93
2018-09-11T23:51:03.201Z,72.44
2018-09-11T23:53:31.503Z,73.11
2018-09-11T23:56:00.049Z,72.53
2018-09-11T23:58:29.348Z,72.73
